sensor_id;sensor_type;location;lat;lon;timestamp;pressure;altitude;pressure_sealevel;temperature;humidity
1401;BME280;46518;48.842;8.926;2023-04-07T00:00:26;97137.84;;;5.49;100.00
1401;BME280;46518;48.842;8.926;2023-04-07T00:02:54;97132.31;;;5.63;100.00
1401;BME280;46518;48.842;8.926;2023-04-07T00:05:23;97135.84;;;5.51;100.00
1401;BME280;46518;48.842;8.926;2023-04-07T00:07:51;97112.66;;;5.36;100.00
1401;BME280;46518;48.842;8.926;2023-04-07T00:10:23;97127.66;;;5.47;100.00
1401;BME280;46518;48.842;8.926;2023-04-07T00:12:53;97101.28;;;5.24;100.00
1401;BME280;46518;48.842;8.926;2023-04-07T00:15:21;97119.25;;;5.38;100.00
1401;BME280;46518;48.842;8.926;2023-04-07T00:17:50;97118.28;;;5.39;100.00
1401;BME280;46518;48.842;8.926;2023-04-07T00:20:18;97087.50;;;5.16;100.00
1401;BME280;46518;48.842;8.926;2023-04-07T00:22:46;97101.59;;;5.40;100.00
1401;BME280;46518;48.842;8.926;2023-04-07T00:25:14;97086.41;;;5.31;100.00
1401;BME280;46518;48.842;8.926;2023-04-07T00:27:43;97118.91;;;5.60;100.00
1401;BME280;46518;48.842;8.926;2023-04-07T00:30:12;97110.69;;;5.56;100.00
1401;BME280;46518;48.842;8.926;2023-04-07T00:32:41;97102.19;;;5.43;100.00
1401;BME280;46518;48.842;8.926;2023-04-07T00:35:11;97099.28;;;5.51;100.00
1401;BME280;46518;48.842;8.926;2023-04-07T00:37:39;97085.75;;;5.35;100.00
1401;BME280;46518;48.842;8.926;2023-04-07T00:40:08;97096.56;;;5.39;100.00
1401;BME280;46518;48.842;8.926;2023-04-07T00:42:37;97082.63;;;5.27;100.00
1401;BME280;46518;48.842;8.926;2023-04-07T00:45:06;97099.34;;;5.44;100.00
1401;BME280;46518;48.842;8.926;2023-04-07T00:47:37;97096.41;;;5.34;100.00
1401;BME280;46518;48.842;8.926;2023-04-07T00:50:06;97076.56;;;5.33;100.00
1401;BME280;46518;48.842;8.926;2023-04-07T00:52:35;97073.16;;;5.32;100.00
1401;BME280;46518;48.842;8.926;2023-04-07T00:55:04;97071.81;;;5.23;100.00
1401;BME280;46518;48.842;8.926;2023-04-07T00:57:32;97053.19;;;5.19;100.00
1401;BME280;46518;48.842;8.926;2023-04-07T01:00:02;97067.97;;;5.26;100.00
1401;BME280;46518;48.842;8.926;2023-04-07T01:02:38;97062.56;;;5.27;100.00
1401;BME280;46518;48.842;8.926;2023-04-07T01:05:14;97051.22;;;5.40;100.00
1401;BME280;46518;48.842;8.926;2023-04-07T01:07:51;97066.22;;;5.45;100.00
1401;BME280;46518;48.842;8.926;2023-04-07T01:10:26;97039.75;;;5.41;100.00
1401;BME280;46518;48.842;8.926;2023-04-07T01:13:08;97053.97;;;5.45;100.00
1401;BME280;46518;48.842;8.926;2023-04-07T01:15:38;97029.31;;;5.16;100.00
1401;BME280;46518;48.842;8.926;2023-04-07T01:18:12;97029.84;;;5.25;100.00
1401;BME280;46518;48.842;8.926;2023-04-07T01:20:44;97052.00;;;5.40;100.00
1401;BME280;46518;48.842;8.926;2023-04-07T01:23:22;97042.75;;;5.45;100.00
1401;BME280;46518;48.842;8.926;2023-04-07T01:26:05;97037.94;;;5.41;100.00
1401;BME280;46518;48.842;8.926;2023-04-07T01:28:47;97033.88;;;5.46;100.00
1401;BME280;46518;48.842;8.926;2023-04-07T01:31:19;97024.81;;;5.48;100.00
1401;BME280;46518;48.842;8.926;2023-04-07T01:33:48;97031.38;;;5.57;100.00
1401;BME280;46518;48.842;8.926;2023-04-07T01:36:18;97022.50;;;5.40;100.00
1401;BME280;46518;48.842;8.926;2023-04-07T01:38:48;97039.28;;;5.26;100.00
1401;BME280;46518;48.842;8.926;2023-04-07T01:41:18;97031.44;;;5.26;100.00
1401;BME280;46518;48.842;8.926;2023-04-07T01:43:48;96996.88;;;5.05;100.00
1401;BME280;46518;48.842;8.926;2023-04-07T01:46:19;97008.88;;;5.13;100.00
1401;BME280;46518;48.842;8.926;2023-04-07T01:48:49;96996.25;;;5.10;100.00
1401;BME280;46518;48.842;8.926;2023-04-07T01:51:20;97005.00;;;5.22;100.00
1401;BME280;46518;48.842;8.926;2023-04-07T01:53:49;97002.44;;;5.15;100.00
1401;BME280;46518;48.842;8.926;2023-04-07T01:56:17;97011.16;;;5.28;100.00
1401;BME280;46518;48.842;8.926;2023-04-07T01:58:50;96991.56;;;5.18;100.00
1401;BME280;46518;48.842;8.926;2023-04-07T02:01:22;97004.72;;;5.30;100.00
1401;BME280;46518;48.842;8.926;2023-04-07T02:03:53;97010.09;;;5.35;100.00
1401;BME280;46518;48.842;8.926;2023-04-07T02:06:27;96989.34;;;5.22;100.00
1401;BME280;46518;48.842;8.926;2023-04-07T02:09:02;96997.53;;;5.26;100.00
1401;BME280;46518;48.842;8.926;2023-04-07T02:11:34;96991.34;;;5.20;100.00
1401;BME280;46518;48.842;8.926;2023-04-07T02:14:05;96990.94;;;5.23;100.00
1401;BME280;46518;48.842;8.926;2023-04-07T02:17:03;97007.63;;;5.40;100.00
1401;BME280;46518;48.842;8.926;2023-04-07T02:19:32;96983.06;;;5.30;100.00
1401;BME280;46518;48.842;8.926;2023-04-07T02:22:02;97002.63;;;5.39;100.00
1401;BME280;46518;48.842;8.926;2023-04-07T02:24:30;96957.94;;;5.29;100.00
1401;BME280;46518;48.842;8.926;2023-04-07T02:26:59;96995.53;;;5.46;100.00
1401;BME280;46518;48.842;8.926;2023-04-07T02:29:28;96994.16;;;5.44;100.00
1401;BME280;46518;48.842;8.926;2023-04-07T02:31:56;96994.16;;;5.44;100.00
1401;BME280;46518;48.842;8.926;2023-04-07T02:34:29;96993.84;;;5.33;100.00
1401;BME280;46518;48.842;8.926;2023-04-07T02:36:58;96989.00;;;5.37;100.00
1401;BME280;46518;48.842;8.926;2023-04-07T02:39:27;96987.22;;;5.56;100.00
1401;BME280;46518;48.842;8.926;2023-04-07T02:41:55;96985.97;;;5.58;100.00
1401;BME280;46518;48.842;8.926;2023-04-07T02:44:23;96980.84;;;5.89;100.00
1401;BME280;46518;48.842;8.926;2023-04-07T02:46:51;96978.09;;;5.65;100.00
1401;BME280;46518;48.842;8.926;2023-04-07T02:49:20;96976.47;;;5.46;100.00
1401;BME280;46518;48.842;8.926;2023-04-07T02:51:49;96979.28;;;5.44;100.00
1401;BME280;46518;48.842;8.926;2023-04-07T02:54:17;96979.47;;;5.68;100.00
1401;BME280;46518;48.842;8.926;2023-04-07T02:56:46;96978.59;;;5.74;100.00
1401;BME280;46518;48.842;8.926;2023-04-07T02:59:14;96971.84;;;5.66;100.00
1401;BME280;46518;48.842;8.926;2023-04-07T03:01:43;96974.19;;;5.74;100.00
1401;BME280;46518;48.842;8.926;2023-04-07T03:04:11;96975.72;;;5.82;100.00
1401;BME280;46518;48.842;8.926;2023-04-07T03:06:41;96980.34;;;6.17;100.00
1401;BME280;46518;48.842;8.926;2023-04-07T03:09:14;96976.91;;;6.35;99.62
1401;BME280;46518;48.842;8.926;2023-04-07T03:11:42;96974.63;;;6.38;98.24
1401;BME280;46518;48.842;8.926;2023-04-07T03:14:11;96968.31;;;6.46;97.86
1401;BME280;46518;48.842;8.926;2023-04-07T03:16:49;96970.66;;;6.36;96.86
1401;BME280;46518;48.842;8.926;2023-04-07T03:19:17;96969.47;;;6.50;97.94
1401;BME280;46518;48.842;8.926;2023-04-07T03:21:49;96966.31;;;6.60;96.94
1401;BME280;46518;48.842;8.926;2023-04-07T03:24:19;96967.72;;;6.14;96.65
1401;BME280;46518;48.842;8.926;2023-04-07T03:26:47;96955.81;;;5.81;99.00
1401;BME280;46518;48.842;8.926;2023-04-07T03:29:23;96957.06;;;5.60;100.00
1401;BME280;46518;48.842;8.926;2023-04-07T03:31:51;96954.22;;;5.61;100.00
1401;BME280;46518;48.842;8.926;2023-04-07T03:34:23;96951.84;;;5.60;100.00
1401;BME280;46518;48.842;8.926;2023-04-07T03:36:51;96946.69;;;5.53;100.00
1401;BME280;46518;48.842;8.926;2023-04-07T03:39:21;96951.00;;;5.41;100.00
1401;BME280;46518;48.842;8.926;2023-04-07T03:41:54;96956.91;;;5.55;100.00
1401;BME280;46518;48.842;8.926;2023-04-07T03:44:26;96948.34;;;5.48;100.00
1401;BME280;46518;48.842;8.926;2023-04-07T03:46:57;96951.16;;;5.46;100.00
1401;BME280;46518;48.842;8.926;2023-04-07T03:49:27;96948.13;;;5.49;100.00
1401;BME280;46518;48.842;8.926;2023-04-07T03:52:00;96949.53;;;5.52;100.00
1401;BME280;46518;48.842;8.926;2023-04-07T03:54:32;96950.06;;;5.54;100.00
1401;BME280;46518;48.842;8.926;2023-04-07T03:57:02;96944.66;;;5.55;100.00
1401;BME280;46518;48.842;8.926;2023-04-07T03:59:35;96943.72;;;5.68;100.00
1401;BME280;46518;48.842;8.926;2023-04-07T04:02:04;96948.56;;;5.65;100.00
1401;BME280;46518;48.842;8.926;2023-04-07T04:04:33;96933.31;;;5.61;100.00
1401;BME280;46518;48.842;8.926;2023-04-07T04:07:01;96941.69;;;5.52;100.00
1401;BME280;46518;48.842;8.926;2023-04-07T04:09:51;96937.91;;;5.48;100.00
1401;BME280;46518;48.842;8.926;2023-04-07T04:12:20;96936.59;;;5.94;100.00
1401;BME280;46518;48.842;8.926;2023-04-07T04:14:59;96928.22;;;6.22;100.00
1401;BME280;46518;48.842;8.926;2023-04-07T04:17:28;96934.09;;;6.47;100.00
1401;BME280;46518;48.842;8.926;2023-04-07T04:19:56;96935.81;;;6.54;98.83
1401;BME280;46518;48.842;8.926;2023-04-07T04:22:36;96937.75;;;6.58;97.01
1401;BME280;46518;48.842;8.926;2023-04-07T04:25:07;96944.50;;;6.36;97.83
1401;BME280;46518;48.842;8.926;2023-04-07T04:27:36;96938.16;;;6.32;98.21
1401;BME280;46518;48.842;8.926;2023-04-07T04:30:12;96933.53;;;6.45;97.45
1401;BME280;46518;48.842;8.926;2023-04-07T04:32:48;96925.63;;;6.22;97.54
1401;BME280;46518;48.842;8.926;2023-04-07T04:35:21;96936.69;;;5.87;100.00
1401;BME280;46518;48.842;8.926;2023-04-07T04:38:03;96932.22;;;6.24;99.79
1401;BME280;46518;48.842;8.926;2023-04-07T04:40:32;96934.09;;;6.47;98.41
1401;BME280;46518;48.842;8.926;2023-04-07T04:43:02;96943.66;;;6.54;97.47
1401;BME280;46518;48.842;8.926;2023-04-07T04:45:35;96940.63;;;6.57;95.91
1401;BME280;46518;48.842;8.926;2023-04-07T04:48:05;96938.84;;;6.39;96.49
1401;BME280;46518;48.842;8.926;2023-04-07T04:50:33;96940.06;;;6.36;97.29
1401;BME280;46518;48.842;8.926;2023-04-07T04:53:06;96940.63;;;6.26;97.49
1401;BME280;46518;48.842;8.926;2023-04-07T04:55:44;96939.50;;;5.86;100.00
1401;BME280;46518;48.842;8.926;2023-04-07T04:58:21;96944.44;;;5.75;100.00
1401;BME280;46518;48.842;8.926;2023-04-07T05:00:53;96941.16;;;5.61;100.00
1401;BME280;46518;48.842;8.926;2023-04-07T05:03:32;96941.53;;;5.65;100.00
1401;BME280;46518;48.842;8.926;2023-04-07T05:06:03;96940.38;;;5.79;100.00
1401;BME280;46518;48.842;8.926;2023-04-07T05:08:32;96942.94;;;6.16;100.00
1401;BME280;46518;48.842;8.926;2023-04-07T05:11:01;96946.13;;;6.48;99.03
1401;BME280;46518;48.842;8.926;2023-04-07T05:13:32;96942.78;;;6.60;98.28
1401;BME280;46518;48.842;8.926;2023-04-07T05:16:03;96948.84;;;6.84;97.47
1401;BME280;46518;48.842;8.926;2023-04-07T05:18:32;96953.50;;;6.94;96.71
1401;BME280;46518;48.842;8.926;2023-04-07T05:21:01;96944.78;;;7.00;95.60
1401;BME280;46518;48.842;8.926;2023-04-07T05:23:30;96936.34;;;6.98;95.03
1401;BME280;46518;48.842;8.926;2023-04-07T05:25:58;96948.09;;;7.07;94.90
1401;BME280;46518;48.842;8.926;2023-04-07T05:28:28;96944.81;;;7.11;94.49
1401;BME280;46518;48.842;8.926;2023-04-07T05:31:00;96944.56;;;7.13;93.45
1401;BME280;46518;48.842;8.926;2023-04-07T05:33:31;96946.59;;;7.11;93.21
1401;BME280;46518;48.842;8.926;2023-04-07T05:36:01;96942.06;;;7.18;93.10
1401;BME280;46518;48.842;8.926;2023-04-07T05:38:31;96942.50;;;7.03;92.01
1401;BME280;46518;48.842;8.926;2023-04-07T05:41:07;96947.84;;;6.97;93.12
1401;BME280;46518;48.842;8.926;2023-04-07T05:43:37;96948.66;;;7.09;92.24
1401;BME280;46518;48.842;8.926;2023-04-07T05:46:05;96946.38;;;7.24;91.86
1401;BME280;46518;48.842;8.926;2023-04-07T05:48:38;96951.16;;;7.27;90.61
1401;BME280;46518;48.842;8.926;2023-04-07T05:51:06;96942.41;;;7.22;90.48
1401;BME280;46518;48.842;8.926;2023-04-07T05:53:34;96943.19;;;7.10;90.37
1401;BME280;46518;48.842;8.926;2023-04-07T05:56:03;96949.00;;;7.12;90.71
1401;BME280;46518;48.842;8.926;2023-04-07T05:58:45;96949.78;;;7.13;89.94
1401;BME280;46518;48.842;8.926;2023-04-07T06:01:14;96946.72;;;7.16;90.23
1401;BME280;46518;48.842;8.926;2023-04-07T06:03:43;96943.41;;;7.21;89.58
1401;BME280;46518;48.842;8.926;2023-04-07T06:06:18;96951.84;;;7.23;89.58
1401;BME280;46518;48.842;8.926;2023-04-07T06:08:46;96944.00;;;7.23;89.16
1401;BME280;46518;48.842;8.926;2023-04-07T06:11:14;96943.88;;;7.06;89.77
1401;BME280;46518;48.842;8.926;2023-04-07T06:13:42;96954.00;;;7.02;89.51
1401;BME280;46518;48.842;8.926;2023-04-07T06:16:11;96954.97;;;6.78;91.44
1401;BME280;46518;48.842;8.926;2023-04-07T06:18:39;96957.19;;;6.51;92.79
1401;BME280;46518;48.842;8.926;2023-04-07T06:21:08;96948.41;;;6.45;94.05
1401;BME280;46518;48.842;8.926;2023-04-07T06:23:41;96951.16;;;6.50;94.56
1401;BME280;46518;48.842;8.926;2023-04-07T06:26:18;96951.25;;;6.85;94.17
1401;BME280;46518;48.842;8.926;2023-04-07T06:29:07;96946.72;;;7.16;92.98
1401;BME280;46518;48.842;8.926;2023-04-07T06:31:37;96948.09;;;7.30;92.67
1401;BME280;46518;48.842;8.926;2023-04-07T06:34:05;96952.63;;;7.35;91.85
1401;BME280;46518;48.842;8.926;2023-04-07T06:36:33;96956.72;;;7.31;91.83
1401;BME280;46518;48.842;8.926;2023-04-07T06:39:01;96953.91;;;7.44;91.74
1401;BME280;46518;48.842;8.926;2023-04-07T06:41:29;96956.06;;;7.59;91.50
1401;BME280;46518;48.842;8.926;2023-04-07T06:43:58;96954.13;;;7.66;90.77
1401;BME280;46518;48.842;8.926;2023-04-07T06:46:26;96949.09;;;7.76;90.73
1401;BME280;46518;48.842;8.926;2023-04-07T06:48:56;96946.41;;;7.88;90.28
1401;BME280;46518;48.842;8.926;2023-04-07T06:51:24;96947.09;;;7.95;89.61
1401;BME280;46518;48.842;8.926;2023-04-07T06:53:52;96948.69;;;7.96;88.90
1401;BME280;46518;48.842;8.926;2023-04-07T06:56:22;96954.34;;;8.05;89.05
1401;BME280;46518;48.842;8.926;2023-04-07T06:58:50;96954.06;;;8.18;89.00
1401;BME280;46518;48.842;8.926;2023-04-07T07:01:18;96949.28;;;8.15;88.49
1401;BME280;46518;48.842;8.926;2023-04-07T07:03:46;96943.69;;;8.24;87.77
1401;BME280;46518;48.842;8.926;2023-04-07T07:06:16;96947.03;;;8.36;87.22
1401;BME280;46518;48.842;8.926;2023-04-07T07:08:45;96943.94;;;8.22;86.63
1401;BME280;46518;48.842;8.926;2023-04-07T07:11:13;96950.16;;;8.33;86.97
1401;BME280;46518;48.842;8.926;2023-04-07T07:13:41;96957.66;;;8.41;85.79
1401;BME280;46518;48.842;8.926;2023-04-07T07:16:10;96948.38;;;8.50;85.71
1401;BME280;46518;48.842;8.926;2023-04-07T07:18:39;96953.72;;;8.55;84.64
1401;BME280;46518;48.842;8.926;2023-04-07T07:21:08;96950.44;;;8.48;84.12
1401;BME280;46518;48.842;8.926;2023-04-07T07:23:37;96954.59;;;8.61;83.99
1401;BME280;46518;48.842;8.926;2023-04-07T07:26:05;96954.53;;;8.73;83.90
1401;BME280;46518;48.842;8.926;2023-04-07T07:28:34;96956.69;;;8.76;83.03
1401;BME280;46518;48.842;8.926;2023-04-07T07:31:07;96940.72;;;8.77;82.40
1401;BME280;46518;48.842;8.926;2023-04-07T07:33:36;96941.75;;;8.93;83.17
1401;BME280;46518;48.842;8.926;2023-04-07T07:36:06;96951.38;;;9.04;83.09
1401;BME280;46518;48.842;8.926;2023-04-07T07:38:36;96954.66;;;8.95;82.74
1401;BME280;46518;48.842;8.926;2023-04-07T07:41:05;96955.03;;;8.70;79.69
1401;BME280;46518;48.842;8.926;2023-04-07T07:43:33;96952.53;;;8.63;82.85
1401;BME280;46518;48.842;8.926;2023-04-07T07:46:03;96951.13;;;8.72;81.28
1401;BME280;46518;48.842;8.926;2023-04-07T07:48:31;96953.16;;;8.99;79.54
1401;BME280;46518;48.842;8.926;2023-04-07T07:50:59;96954.00;;;9.04;78.26
1401;BME280;46518;48.842;8.926;2023-04-07T07:53:28;96955.03;;;8.87;79.79
1401;BME280;46518;48.842;8.926;2023-04-07T07:55:58;96949.78;;;9.03;81.30
1401;BME280;46518;48.842;8.926;2023-04-07T07:58:27;96945.00;;;9.00;77.70
1401;BME280;46518;48.842;8.926;2023-04-07T08:00:55;96951.47;;;8.93;78.21
1401;BME280;46518;48.842;8.926;2023-04-07T08:03:23;96953.22;;;9.04;77.34
1401;BME280;46518;48.842;8.926;2023-04-07T08:05:52;96952.50;;;9.09;76.09
1401;BME280;46518;48.842;8.926;2023-04-07T08:08:20;96948.28;;;9.07;80.64
1401;BME280;46518;48.842;8.926;2023-04-07T08:10:49;96946.66;;;9.23;77.55
1401;BME280;46518;48.842;8.926;2023-04-07T08:13:18;96947.41;;;9.19;76.66
1401;BME280;46518;48.842;8.926;2023-04-07T08:15:47;96950.56;;;9.21;76.87
1401;BME280;46518;48.842;8.926;2023-04-07T08:18:15;96951.03;;;9.35;78.53
1401;BME280;46518;48.842;8.926;2023-04-07T08:20:43;96950.53;;;9.55;75.47
1401;BME280;46518;48.842;8.926;2023-04-07T08:23:12;96950.91;;;9.63;78.03
1401;BME280;46518;48.842;8.926;2023-04-07T08:25:40;96953.44;;;9.75;75.74
1401;BME280;46518;48.842;8.926;2023-04-07T08:28:09;96956.44;;;9.84;76.43
1401;BME280;46518;48.842;8.926;2023-04-07T08:30:39;96956.56;;;9.94;78.86
1401;BME280;46518;48.842;8.926;2023-04-07T08:33:07;96958.63;;;9.92;79.33
1401;BME280;46518;48.842;8.926;2023-04-07T08:35:35;96962.41;;;10.23;73.86
1401;BME280;46518;48.842;8.926;2023-04-07T08:38:04;96965.47;;;10.15;76.22
1401;BME280;46518;48.842;8.926;2023-04-07T08:40:34;96965.94;;;10.29;75.72
1401;BME280;46518;48.842;8.926;2023-04-07T08:43:07;96968.72;;;10.44;74.42
1401;BME280;46518;48.842;8.926;2023-04-07T08:45:39;96962.06;;;10.14;77.83
1401;BME280;46518;48.842;8.926;2023-04-07T08:48:13;96962.06;;;9.92;78.98
1401;BME280;46518;48.842;8.926;2023-04-07T08:50:44;96969.16;;;9.92;77.55
1401;BME280;46518;48.842;8.926;2023-04-07T08:53:14;96973.19;;;10.22;75.17
1401;BME280;46518;48.842;8.926;2023-04-07T08:55:45;96963.75;;;10.26;74.83
1401;BME280;46518;48.842;8.926;2023-04-07T08:58:14;96965.47;;;10.37;77.61
1401;BME280;46518;48.842;8.926;2023-04-07T09:00:45;96966.78;;;10.62;71.68
1401;BME280;46518;48.842;8.926;2023-04-07T09:03:15;96953.97;;;10.70;70.54
1401;BME280;46518;48.842;8.926;2023-04-07T09:05:45;96960.38;;;10.52;73.87
1401;BME280;46518;48.842;8.926;2023-04-07T09:08:14;96964.25;;;10.72;73.44
1401;BME280;46518;48.842;8.926;2023-04-07T09:10:42;96970.75;;;10.37;72.06
1401;BME280;46518;48.842;8.926;2023-04-07T09:13:11;96975.09;;;10.26;72.52
1401;BME280;46518;48.842;8.926;2023-04-07T09:15:39;96971.91;;;10.02;74.48
1401;BME280;46518;48.842;8.926;2023-04-07T09:18:09;96978.38;;;9.94;74.93
1401;BME280;46518;48.842;8.926;2023-04-07T09:20:55;96976.25;;;10.13;71.16
1401;BME280;46518;48.842;8.926;2023-04-07T09:23:29;96979.78;;;10.46;68.78
1401;BME280;46518;48.842;8.926;2023-04-07T09:25:59;96978.75;;;10.74;68.76
1401;BME280;46518;48.842;8.926;2023-04-07T09:28:39;96971.94;;;10.78;69.32
1401;BME280;46518;48.842;8.926;2023-04-07T09:31:08;96976.44;;;11.15;67.57
1401;BME280;46518;48.842;8.926;2023-04-07T09:33:38;96969.69;;;11.25;70.37
1401;BME280;46518;48.842;8.926;2023-04-07T09:36:07;96969.03;;;11.44;69.60
1401;BME280;46518;48.842;8.926;2023-04-07T09:38:37;96963.34;;;11.68;62.72
1401;BME280;46518;48.842;8.926;2023-04-07T09:41:08;96974.13;;;11.61;60.40
1401;BME280;46518;48.842;8.926;2023-04-07T09:43:38;96973.72;;;11.37;61.50
1401;BME280;46518;48.842;8.926;2023-04-07T09:46:11;96967.47;;;11.49;63.75
1401;BME280;46518;48.842;8.926;2023-04-07T09:48:43;96964.81;;;11.43;64.27
1401;BME280;46518;48.842;8.926;2023-04-07T09:51:13;96973.09;;;11.68;66.04
1401;BME280;46518;48.842;8.926;2023-04-07T09:53:44;96974.59;;;11.91;65.78
1401;BME280;46518;48.842;8.926;2023-04-07T09:56:15;96968.09;;;12.14;63.63
1401;BME280;46518;48.842;8.926;2023-04-07T09:58:45;96964.44;;;12.35;62.90
1401;BME280;46518;48.842;8.926;2023-04-07T10:01:15;96967.63;;;12.42;62.56
1401;BME280;46518;48.842;8.926;2023-04-07T10:03:46;96973.13;;;12.25;60.78
1401;BME280;46518;48.842;8.926;2023-04-07T10:06:16;96975.25;;;11.71;61.48
1401;BME280;46518;48.842;8.926;2023-04-07T10:08:44;96979.31;;;11.46;62.11
1401;BME280;46518;48.842;8.926;2023-04-07T10:11:14;96978.38;;;11.25;65.25
1401;BME280;46518;48.842;8.926;2023-04-07T10:13:43;96982.09;;;10.97;67.23
1401;BME280;46518;48.842;8.926;2023-04-07T10:16:13;96975.69;;;10.88;65.02
1401;BME280;46518;48.842;8.926;2023-04-07T10:18:42;96976.16;;;10.79;66.28
1401;BME280;46518;48.842;8.926;2023-04-07T10:21:15;96976.66;;;10.76;67.11
1401;BME280;46518;48.842;8.926;2023-04-07T10:23:51;96979.53;;;10.75;68.20
1401;BME280;46518;48.842;8.926;2023-04-07T10:26:25;96972.28;;;10.87;66.10
1401;BME280;46518;48.842;8.926;2023-04-07T10:28:59;96973.75;;;11.05;63.88
1401;BME280;46518;48.842;8.926;2023-04-07T10:31:30;96972.94;;;11.05;65.02
1401;BME280;46518;48.842;8.926;2023-04-07T10:33:59;96982.09;;;10.97;65.32
1401;BME280;46518;48.842;8.926;2023-04-07T10:36:30;96975.00;;;10.97;65.16
1401;BME280;46518;48.842;8.926;2023-04-07T10:39:19;96977.03;;;10.90;66.38
1401;BME280;46518;48.842;8.926;2023-04-07T10:41:48;96975.63;;;11.10;66.62
1401;BME280;46518;48.842;8.926;2023-04-07T10:47:24;96978.63;;;11.23;62.41
1401;BME280;46518;48.842;8.926;2023-04-07T10:50:16;96977.66;;;11.02;59.47
1401;BME280;46518;48.842;8.926;2023-04-07T10:52:48;96978.56;;;11.13;59.91
1401;BME280;46518;48.842;8.926;2023-04-07T10:55:35;96982.53;;;11.16;60.98
1401;BME280;46518;48.842;8.926;2023-04-07T10:58:18;96972.59;;;11.28;60.52
1401;BME280;46518;48.842;8.926;2023-04-07T11:01:16;96973.69;;;11.32;60.03
1401;BME280;46518;48.842;8.926;2023-04-07T11:03:57;96969.03;;;11.44;61.05
1401;BME280;46518;48.842;8.926;2023-04-07T11:06:26;96976.78;;;11.24;60.18
1401;BME280;46518;48.842;8.926;2023-04-07T11:08:57;96979.75;;;11.33;58.60
1401;BME280;46518;48.842;8.926;2023-04-07T11:11:39;96987.88;;;11.63;56.83
1401;BME280;46518;48.842;8.926;2023-04-07T11:14:08;96978.81;;;11.92;58.15
1401;BME280;46518;48.842;8.926;2023-04-07T11:16:41;96983.63;;;12.10;56.51
1401;BME280;46518;48.842;8.926;2023-04-07T11:19:11;96981.28;;;12.14;58.27
1401;BME280;46518;48.842;8.926;2023-04-07T11:21:40;96971.19;;;12.05;59.47
1401;BME280;46518;48.842;8.926;2023-04-07T11:24:10;96986.50;;;12.03;60.95
1401;BME280;46518;48.842;8.926;2023-04-07T11:26:58;96981.28;;;12.14;59.48
1401;BME280;46518;48.842;8.926;2023-04-07T11:29:27;96990.53;;;12.16;61.20
1401;BME280;46518;48.842;8.926;2023-04-07T11:31:57;96986.56;;;12.14;61.34
1401;BME280;46518;48.842;8.926;2023-04-07T11:34:28;96990.56;;;12.26;61.44
1401;BME280;46518;48.842;8.926;2023-04-07T11:36:57;96987.13;;;12.26;60.81
1401;BME280;46518;48.842;8.926;2023-04-07T11:39:29;96986.91;;;12.43;61.15
1401;BME280;46518;48.842;8.926;2023-04-07T11:41:58;96982.44;;;12.48;61.17
1401;BME280;46518;48.842;8.926;2023-04-07T11:44:26;96990.91;;;12.50;61.27
1401;BME280;46518;48.842;8.926;2023-04-07T11:46:56;96989.06;;;12.51;60.87
1401;BME280;46518;48.842;8.926;2023-04-07T11:49:26;96991.94;;;12.55;61.11
1401;BME280;46518;48.842;8.926;2023-04-07T11:51:59;96990.41;;;12.64;60.92
1401;BME280;46518;48.842;8.926;2023-04-07T11:54:40;96999.38;;;12.68;60.76
1401;BME280;46518;48.842;8.926;2023-04-07T11:57:10;96998.56;;;12.62;60.96
1401;BME280;46518;48.842;8.926;2023-04-07T11:59:39;97001.72;;;12.59;60.85
1401;BME280;46518;48.842;8.926;2023-04-07T12:02:08;97003.56;;;12.48;61.20
1401;BME280;46518;48.842;8.926;2023-04-07T12:04:36;97000.63;;;12.40;61.77
1401;BME280;46518;48.842;8.926;2023-04-07T12:07:08;96999.03;;;12.34;61.28
1401;BME280;46518;48.842;8.926;2023-04-07T12:09:37;97002.97;;;12.31;61.91
1401;BME280;46518;48.842;8.926;2023-04-07T12:12:07;97000.28;;;12.16;62.55
1401;BME280;46518;48.842;8.926;2023-04-07T12:14:36;97008.97;;;12.11;62.94
1401;BME280;46518;48.842;8.926;2023-04-07T12:17:05;97009.22;;;12.09;63.26
1401;BME280;46518;48.842;8.926;2023-04-07T12:19:35;97008.66;;;12.02;63.76
1401;BME280;46518;48.842;8.926;2023-04-07T12:22:05;96999.81;;;11.81;65.68
1401;BME280;46518;48.842;8.926;2023-04-07T12:24:35;97002.59;;;11.59;67.46
1401;BME280;46518;48.842;8.926;2023-04-07T12:27:03;97007.28;;;11.52;68.02
1401;BME280;46518;48.842;8.926;2023-04-07T12:29:33;97016.69;;;11.43;69.23
1401;BME280;46518;48.842;8.926;2023-04-07T12:32:03;97020.44;;;11.47;69.83
1401;BME280;46518;48.842;8.926;2023-04-07T12:34:32;97020.72;;;11.51;70.19
1401;BME280;46518;48.842;8.926;2023-04-07T12:37:03;97028.41;;;11.57;70.02
1401;BME280;46518;48.842;8.926;2023-04-07T12:39:32;97031.00;;;11.52;70.12
1401;BME280;46518;48.842;8.926;2023-04-07T12:42:00;97029.13;;;11.48;70.04
1401;BME280;46518;48.842;8.926;2023-04-07T12:44:29;97039.63;;;11.42;70.53
1401;BME280;46518;48.842;8.926;2023-04-07T12:46:58;97036.19;;;11.42;70.75
1401;BME280;46518;48.842;8.926;2023-04-07T12:49:27;97038.56;;;11.38;71.52
1401;BME280;46518;48.842;8.926;2023-04-07T12:51:55;97036.41;;;11.35;73.38
1401;BME280;46518;48.842;8.926;2023-04-07T12:54:24;97032.94;;;10.97;74.08
1401;BME280;46518;48.842;8.926;2023-04-07T12:56:54;97029.56;;;11.02;75.55
1401;BME280;46518;48.842;8.926;2023-04-07T12:59:23;97039.84;;;10.76;75.92
1401;BME280;46518;48.842;8.926;2023-04-07T13:01:52;97042.72;;;10.53;77.74
1401;BME280;46518;48.842;8.926;2023-04-07T13:04:22;97044.84;;;10.12;79.60
1401;BME280;46518;48.842;8.926;2023-04-07T13:06:53;97037.78;;;9.74;82.06
1401;BME280;46518;48.842;8.926;2023-04-07T13:09:21;97049.09;;;9.74;84.45
1401;BME280;46518;48.842;8.926;2023-04-07T13:11:49;97045.53;;;10.24;82.90
1401;BME280;46518;48.842;8.926;2023-04-07T13:14:17;97042.38;;;10.44;82.23
1401;BME280;46518;48.842;8.926;2023-04-07T13:16:46;97040.97;;;10.58;82.11
1401;BME280;46518;48.842;8.926;2023-04-07T13:19:14;97013.94;;;10.68;81.31
1401;BME280;46518;48.842;8.926;2023-04-07T13:21:44;97034.81;;;11.02;80.83
1401;BME280;46518;48.842;8.926;2023-04-07T13:24:14;97032.66;;;10.94;78.81
1401;BME280;46518;48.842;8.926;2023-04-07T13:26:43;97031.59;;;10.95;78.53
1401;BME280;46518;48.842;8.926;2023-04-07T13:29:11;97026.00;;;11.18;77.45
1401;BME280;46518;48.842;8.926;2023-04-07T13:31:40;97029.13;;;11.15;76.72
1401;BME280;46518;48.842;8.926;2023-04-07T13:34:08;97013.72;;;10.70;77.33
1401;BME280;46518;48.842;8.926;2023-04-07T13:36:36;97032.41;;;11.28;76.93